createdAt,value
2019-02-04T00:00:37.936Z,8.03
2019-02-04T00:03:06.536Z,7.45
2019-02-04T00:05:34.556Z,7.62
2019-02-04T00:08:02.638Z,11.12
2019-02-04T00:10:30.589Z,6.45
2019-02-04T00:12:59.206Z,11.43
2019-02-04T00:15:27.502Z,12.00
2019-02-04T00:17:55.475Z,15.45
2019-02-04T00:20:23.460Z,9.40
2019-02-04T00:22:51.457Z,10.72
2019-02-04T00:25:21.560Z,6.95
2019-02-04T00:27:49.299Z,5.72
2019-02-04T00:30:17.413Z,8.35
2019-02-04T00:32:45.451Z,8.50
2019-02-04T00:35:13.505Z,12.05
2019-02-04T00:37:41.559Z,8.38
2019-02-04T00:40:12.772Z,6.87
2019-02-04T00:42:41.891Z,11.18
2019-02-04T00:45:09.892Z,12.37
2019-02-04T00:47:37.952Z,12.40
2019-02-04T00:50:06.496Z,14.00
2019-02-04T00:52:36.592Z,8.23
2019-02-04T00:55:05.028Z,8.28
2019-02-04T00:57:33.002Z,14.15
2019-02-04T01:00:01.451Z,9.35
2019-02-04T01:02:29.417Z,10.75
2019-02-04T01:04:57.475Z,11.83
2019-02-04T01:07:25.480Z,7.28
2019-02-04T01:09:53.509Z,12.07
2019-02-04T01:12:21.561Z,10.93
2019-02-04T01:14:49.583Z,16.60
2019-02-04T01:17:17.609Z,8.65
2019-02-04T01:19:45.615Z,7.03
2019-02-04T01:22:13.635Z,10.32
2019-02-04T01:24:41.614Z,9.43
2019-02-04T01:27:09.653Z,8.10
2019-02-04T01:29:37.655Z,15.05
2019-02-04T01:32:05.707Z,9.75
2019-02-04T01:34:33.741Z,12.53
2019-02-04T01:37:01.755Z,8.33
2019-02-04T01:39:29.757Z,9.70
2019-02-04T01:41:57.749Z,11.03
2019-02-04T01:44:25.777Z,7.17
2019-02-04T01:46:54.048Z,16.40
2019-02-04T01:49:22.101Z,14.15
2019-02-04T01:51:50.151Z,10.43
2019-02-04T01:54:18.161Z,11.28
2019-02-04T01:56:46.150Z,13.62
2019-02-04T01:59:14.210Z,11.93
2019-02-04T02:01:42.273Z,12.90
2019-02-04T02:04:10.302Z,9.80
2019-02-04T02:06:38.270Z,18.40
2019-02-04T02:09:09.875Z,11.18
2019-02-04T02:11:37.922Z,13.60
2019-02-04T02:14:06.170Z,16.62
2019-02-04T02:16:34.125Z,16.25
2019-02-04T02:19:02.226Z,17.37
2019-02-04T02:21:30.205Z,10.58
2019-02-04T02:23:58.175Z,7.87
2019-02-04T02:26:26.284Z,9.38
2019-02-04T02:28:54.308Z,15.10
2019-02-04T02:34:16.585Z,12.68
2019-02-04T02:36:44.644Z,13.15
2019-02-04T02:39:12.698Z,12.78
2019-02-04T02:41:40.732Z,12.28
2019-02-04T02:44:08.914Z,13.68
2019-02-04T02:46:37.175Z,20.80
2019-02-04T02:49:05.349Z,18.98
2019-02-04T02:51:33.363Z,16.15
2019-02-04T02:54:01.393Z,13.98
2019-02-04T02:56:29.431Z,16.25
2019-02-04T02:58:57.449Z,19.07
2019-02-04T03:01:25.449Z,20.17
2019-02-04T03:03:53.830Z,17.32
2019-02-04T03:06:21.910Z,14.07
2019-02-04T03:08:49.934Z,20.10
2019-02-04T03:11:17.974Z,18.23
2019-02-04T03:13:45.973Z,16.40
2019-02-04T03:16:14.335Z,22.67
2019-02-04T03:18:42.414Z,17.92
2019-02-04T03:21:10.507Z,20.00
2019-02-04T03:23:38.573Z,24.90
2019-02-04T03:26:06.562Z,23.20
2019-02-04T03:28:34.558Z,24.87
2019-02-04T03:31:02.584Z,16.90
2019-02-04T03:36:17.569Z,20.40
2019-02-04T03:38:45.538Z,19.85
2019-02-04T03:41:13.678Z,17.50
2019-02-04T03:43:43.396Z,20.15
2019-02-04T03:46:11.789Z,16.02
2019-02-04T03:48:39.810Z,18.32
2019-02-04T03:51:07.814Z,23.07
2019-02-04T03:53:35.942Z,20.65
2019-02-04T03:56:03.932Z,15.13
2019-02-04T03:58:33.973Z,17.62
2019-02-04T04:01:01.933Z,16.23
2019-02-04T04:03:29.981Z,17.57
2019-02-04T04:05:58.033Z,16.02
2019-02-04T04:08:26.070Z,23.57
2019-02-04T04:10:54.081Z,17.48
2019-02-04T04:13:22.078Z,19.40
2019-02-04T04:15:50.078Z,20.32
2019-02-04T04:18:18.153Z,20.55
2019-02-04T04:20:46.178Z,21.62
2019-02-04T04:23:14.196Z,19.57
2019-02-04T04:25:42.203Z,18.82
2019-02-04T04:28:10.232Z,20.10
2019-02-04T04:30:38.477Z,17.60
2019-02-04T04:33:06.472Z,21.27
2019-02-04T04:35:34.503Z,26.23
2019-02-04T04:38:02.532Z,22.48
2019-02-04T04:40:30.552Z,24.92
2019-02-04T04:42:58.864Z,27.35
2019-02-04T04:45:26.866Z,26.25
2019-02-04T04:47:55.006Z,26.77
2019-02-04T04:50:23.053Z,21.05
2019-02-04T04:52:51.079Z,23.15
2019-02-04T04:55:21.213Z,24.37
2019-02-04T04:57:49.239Z,26.33
2019-02-04T05:00:19.785Z,33.65
2019-02-04T05:02:47.790Z,27.80
2019-02-04T05:05:15.889Z,21.80
2019-02-04T05:07:43.968Z,26.77
2019-02-04T05:10:14.319Z,20.50
2019-02-04T05:12:42.431Z,25.40
2019-02-04T05:15:13.227Z,28.62
2019-02-04T05:20:09.150Z,48.65
2019-02-04T05:22:37.140Z,32.78
2019-02-04T05:25:05.337Z,38.65
2019-02-04T05:27:33.391Z,47.48
2019-02-04T05:30:01.555Z,31.68
2019-02-04T05:32:31.357Z,36.30
2019-02-04T05:34:59.364Z,24.65
2019-02-04T05:37:27.484Z,29.70
2019-02-04T05:39:55.604Z,29.35
2019-02-04T05:42:26.718Z,40.03
2019-02-04T05:44:54.769Z,42.10
2019-02-04T05:47:24.540Z,34.48
2019-02-04T05:49:52.572Z,32.67
2019-02-04T05:52:20.618Z,35.78
2019-02-04T05:54:48.666Z,22.70
2019-02-04T05:57:16.765Z,28.00
2019-02-04T05:59:44.769Z,19.35
2019-02-04T06:02:13.143Z,20.85
2019-02-04T06:04:41.283Z,19.27
2019-02-04T06:07:09.299Z,24.25
2019-02-04T06:09:37.399Z,26.82
2019-02-04T06:12:05.395Z,29.25
2019-02-04T06:14:33.427Z,27.02
2019-02-04T06:17:01.521Z,22.62
2019-02-04T06:19:29.879Z,26.05
2019-02-04T06:21:57.851Z,28.27
2019-02-04T06:24:25.919Z,23.10
2019-02-04T06:26:53.909Z,19.80
2019-02-04T06:29:21.959Z,24.70
2019-02-04T06:31:50.002Z,26.70
2019-02-04T06:34:18.659Z,22.10
2019-02-04T06:36:46.717Z,24.70
2019-02-04T06:39:14.772Z,25.85
2019-02-04T06:41:42.814Z,20.27
2019-02-04T06:44:10.860Z,24.75
2019-02-04T06:46:38.883Z,24.72
2019-02-04T06:49:12.369Z,20.57
2019-02-04T06:51:36.628Z,17.40
2019-02-04T06:54:04.677Z,21.82
2019-02-04T06:56:32.694Z,20.02
2019-02-04T06:59:00.760Z,22.35
2019-02-04T07:01:28.757Z,18.85
2019-02-04T07:03:56.810Z,17.45
2019-02-04T07:06:25.305Z,15.53
2019-02-04T07:08:53.334Z,21.02
2019-02-04T07:11:21.353Z,21.90
2019-02-04T07:13:49.380Z,25.15
2019-02-04T07:16:17.485Z,17.30
2019-02-04T07:18:45.577Z,18.55
2019-02-04T07:21:13.601Z,23.98
2019-02-04T07:23:42.144Z,13.18
2019-02-04T07:26:10.269Z,23.15
2019-02-04T07:28:38.235Z,23.42
2019-02-04T07:31:06.387Z,22.80
2019-02-04T07:33:34.405Z,21.85
2019-02-04T07:36:03.552Z,21.55
2019-02-04T07:38:31.750Z,18.52
2019-02-04T07:40:59.820Z,23.00
2019-02-04T07:43:27.852Z,21.82
2019-02-04T07:45:56.027Z,24.12
2019-02-04T07:48:24.030Z,22.67
2019-02-04T07:50:52.198Z,23.07
2019-02-04T07:53:20.211Z,19.82
2019-02-04T07:55:48.630Z,18.85
2019-02-04T07:58:16.662Z,21.50
2019-02-04T08:00:44.822Z,24.45
2019-02-04T08:03:15.049Z,25.05
2019-02-04T08:05:42.739Z,22.37
2019-02-04T08:08:10.800Z,20.23
2019-02-04T08:10:38.877Z,24.92
2019-02-04T08:13:06.869Z,20.82
2019-02-04T08:15:37.035Z,17.80
2019-02-04T08:18:05.547Z,18.90
2019-02-04T08:20:33.665Z,19.65
2019-02-04T08:23:01.691Z,18.32
2019-02-04T08:25:29.699Z,19.27
2019-02-04T08:27:58.003Z,13.95
2019-02-04T08:30:28.181Z,17.30
2019-02-04T08:32:56.596Z,17.35
2019-02-04T08:35:24.937Z,17.75
2019-02-04T08:37:52.942Z,20.00
2019-02-04T08:40:20.963Z,16.10
2019-02-04T08:42:49.005Z,19.32
2019-02-04T08:45:16.975Z,14.38
2019-02-04T08:47:45.000Z,19.40
2019-02-04T08:50:15.336Z,17.95
2019-02-04T08:52:43.506Z,11.22
2019-02-04T08:55:11.697Z,14.65
2019-02-04T08:57:39.744Z,10.50
2019-02-04T09:00:09.760Z,12.30
2019-02-04T09:02:37.726Z,12.55
2019-02-04T09:05:05.958Z,14.55
2019-02-04T09:07:33.996Z,12.55
2019-02-04T09:10:02.255Z,12.47
2019-02-04T09:12:30.428Z,11.90
2019-02-04T09:14:58.509Z,13.05
2019-02-04T09:17:26.673Z,12.07
2019-02-04T09:19:54.721Z,8.25
2019-02-04T09:22:22.763Z,9.23
2019-02-04T09:24:50.863Z,10.15
2019-02-04T09:27:18.959Z,13.78
2019-02-04T09:29:47.163Z,11.43
2019-02-04T09:32:15.346Z,13.62
2019-02-04T09:34:45.076Z,10.88
2019-02-04T09:37:13.217Z,18.55
2019-02-04T09:39:41.310Z,7.92
2019-02-04T09:42:09.288Z,9.98
2019-02-04T09:44:37.317Z,22.60
2019-02-04T09:47:05.369Z,9.75
2019-02-04T09:49:33.446Z,12.50
2019-02-04T09:52:01.849Z,11.50
2019-02-04T09:54:29.903Z,5.87
2019-02-04T09:56:58.024Z,9.28
2019-02-04T09:59:26.104Z,10.38
2019-02-04T10:01:54.221Z,9.78
2019-02-04T10:04:22.220Z,7.00
2019-02-04T10:06:50.491Z,12.65
2019-02-04T10:09:18.497Z,9.98
2019-02-04T10:11:46.554Z,11.03
2019-02-04T10:14:14.547Z,7.35
2019-02-04T10:16:42.653Z,11.30
2019-02-04T10:19:10.857Z,11.15
2019-02-04T10:21:38.939Z,12.35
2019-02-04T10:24:06.910Z,9.88
2019-02-04T10:26:35.008Z,13.45
2019-02-04T10:29:02.964Z,13.62
2019-02-04T10:31:31.000Z,11.48
2019-02-04T10:33:59.189Z,12.13
2019-02-04T10:36:27.253Z,13.38
2019-02-04T10:38:55.689Z,10.25
2019-02-04T10:41:23.651Z,10.48
2019-02-04T10:43:51.743Z,10.98
2019-02-04T10:46:19.832Z,8.95
2019-02-04T10:48:48.086Z,6.70
2019-02-04T10:51:16.143Z,10.65
2019-02-04T10:53:44.201Z,10.32
2019-02-04T10:56:12.494Z,10.72
2019-02-04T10:58:40.485Z,10.63
2019-02-04T11:01:08.454Z,10.18
2019-02-04T11:03:36.731Z,11.35
2019-02-04T11:06:04.794Z,7.78
2019-02-04T11:08:32.966Z,8.98
2019-02-04T11:11:01.930Z,7.47
2019-02-04T11:13:29.971Z,9.55
2019-02-04T11:15:58.002Z,7.10
2019-02-04T11:18:25.969Z,9.08
2019-02-04T11:20:58.071Z,5.33
2019-02-04T11:23:23.767Z,7.28
2019-02-04T11:25:51.840Z,8.55
2019-02-04T11:28:20.173Z,6.45
2019-02-04T11:30:51.320Z,9.20
2019-02-04T11:33:19.449Z,8.40
2019-02-04T11:35:47.736Z,9.78
2019-02-04T11:38:15.795Z,8.58
2019-02-04T11:40:45.846Z,6.78
2019-02-04T11:43:13.548Z,13.32
2019-02-04T11:45:41.508Z,7.28
2019-02-04T11:48:10.616Z,9.45
2019-02-04T11:50:38.818Z,10.03
2019-02-04T11:53:06.979Z,8.95
2019-02-04T11:55:34.963Z,8.70
2019-02-04T11:58:03.275Z,9.88
2019-02-04T12:00:31.281Z,9.60
2019-02-04T12:03:00.489Z,9.33
2019-02-04T12:05:28.941Z,7.53
2019-02-04T12:07:57.049Z,14.55
2019-02-04T12:10:30.914Z,10.13
2019-02-04T12:12:59.217Z,8.55
2019-02-04T12:15:27.217Z,9.78
2019-02-04T12:17:55.215Z,10.43
2019-02-04T12:20:23.329Z,8.53
2019-02-04T12:22:51.396Z,14.15
2019-02-04T12:25:22.939Z,8.88
2019-02-04T12:27:51.034Z,7.28
2019-02-04T12:30:27.038Z,7.45
2019-02-04T12:32:55.386Z,6.40
2019-02-04T12:35:23.398Z,8.55
2019-02-04T12:37:51.466Z,6.75
2019-02-04T12:40:19.468Z,12.15
2019-02-04T12:42:48.050Z,9.03
2019-02-04T12:45:21.793Z,8.10
2019-02-04T12:47:49.885Z,6.53
2019-02-04T12:50:17.910Z,8.10
2019-02-04T12:52:46.287Z,9.60
2019-02-04T12:55:16.967Z,8.60
2019-02-04T12:57:45.343Z,9.83
2019-02-04T13:00:16.434Z,10.08
2019-02-04T13:02:44.677Z,7.58
2019-02-04T13:05:16.944Z,7.03
2019-02-04T13:07:46.701Z,5.55
2019-02-04T13:10:15.966Z,8.93
2019-02-04T13:12:44.017Z,8.80
2019-02-04T13:15:14.612Z,9.18
2019-02-04T13:17:42.677Z,7.50
2019-02-04T13:20:11.648Z,7.70
2019-02-04T13:22:39.790Z,5.20
2019-02-04T13:25:09.151Z,6.85
2019-02-04T13:27:37.647Z,6.55
2019-02-04T13:30:06.442Z,5.50
2019-02-04T13:32:34.525Z,5.95
2019-02-04T13:35:02.665Z,8.73
2019-02-04T13:37:30.724Z,6.55
2019-02-04T13:40:02.922Z,8.58
2019-02-04T13:42:31.402Z,7.60
2019-02-04T13:44:59.551Z,6.95
2019-02-04T13:47:27.540Z,7.45
2019-02-04T13:49:55.561Z,8.78
2019-02-04T13:52:23.686Z,5.90
2019-02-04T13:54:51.731Z,5.22
2019-02-04T13:57:21.890Z,6.93
2019-02-04T13:59:49.922Z,5.00
2019-02-04T14:02:23.772Z,5.30
2019-02-04T14:04:51.825Z,8.58
2019-02-04T14:07:21.432Z,5.80
2019-02-04T14:09:49.697Z,10.83
2019-02-04T14:12:20.775Z,8.73
2019-02-04T14:14:48.876Z,5.05
2019-02-04T14:17:16.852Z,4.58
2019-02-04T14:19:44.891Z,7.85
2019-02-04T14:22:12.912Z,7.15
2019-02-04T14:24:40.957Z,5.78
2019-02-04T14:27:09.205Z,7.75
2019-02-04T14:29:37.253Z,8.05
2019-02-04T14:32:05.346Z,7.37
2019-02-04T14:34:33.812Z,6.30
2019-02-04T14:37:02.253Z,6.22
2019-02-04T14:39:30.584Z,7.60
2019-02-04T14:41:58.964Z,7.87
2019-02-04T14:44:57.790Z,9.78
2019-02-04T14:47:49.742Z,7.75
2019-02-04T14:50:56.000Z,7.87
2019-02-04T14:53:53.256Z,4.70
2019-02-04T14:56:44.920Z,6.28
2019-02-04T14:59:50.065Z,9.33
2019-02-04T15:03:19.700Z,9.68
2019-02-04T15:06:37.843Z,10.70
2019-02-04T15:09:50.476Z,7.70
2019-02-04T15:13:08.321Z,9.58
2019-02-04T15:16:01.397Z,10.30
2019-02-04T15:19:00.718Z,12.65
2019-02-04T15:22:05.737Z,11.90
2019-02-04T15:25:23.427Z,12.45
2019-02-04T15:28:11.475Z,9.63
2019-02-04T15:31:05.847Z,11.05
2019-02-04T15:34:18.235Z,13.10
2019-02-04T15:37:00.737Z,9.55
2019-02-04T15:40:07.007Z,4.90
2019-02-04T15:43:04.773Z,7.55
2019-02-04T15:46:17.209Z,12.15
2019-02-04T15:49:26.426Z,9.28
2019-02-04T15:51:57.864Z,9.05
2019-02-04T15:54:25.896Z,10.13
2019-02-04T15:56:55.341Z,7.08
2019-02-04T15:59:23.369Z,8.73
2019-02-04T16:01:51.921Z,7.65
2019-02-04T16:04:27.866Z,7.40
2019-02-04T16:06:55.960Z,7.25
2019-02-04T16:09:23.995Z,7.17
2019-02-04T16:11:51.982Z,8.63
2019-02-04T16:16:55.856Z,6.90
2019-02-04T16:19:24.557Z,6.35
2019-02-04T16:21:53.111Z,8.15
2019-02-04T16:24:21.610Z,7.00
2019-02-04T16:26:49.710Z,6.05
2019-02-04T16:29:25.075Z,6.83
2019-02-04T16:31:54.152Z,8.55
2019-02-04T16:34:24.125Z,8.45
2019-02-04T16:36:52.113Z,4.97
2019-02-04T16:39:20.363Z,9.10
2019-02-04T16:41:48.405Z,6.80
2019-02-04T16:44:16.519Z,6.00
2019-02-04T16:46:44.819Z,5.70
2019-02-04T16:49:12.971Z,7.80
2019-02-04T16:51:41.080Z,5.17
2019-02-04T16:54:09.100Z,7.47
2019-02-04T16:56:37.162Z,10.03
2019-02-04T16:59:05.305Z,5.83
2019-02-04T17:01:33.466Z,5.85
2019-02-04T17:04:01.794Z,5.55
2019-02-04T17:06:30.119Z,6.05
2019-02-04T17:08:58.181Z,3.98
2019-02-04T17:11:26.220Z,9.53
2019-02-04T17:13:54.336Z,9.70
2019-02-04T17:16:22.419Z,7.33
2019-02-04T17:18:50.792Z,8.23
2019-02-04T17:21:19.006Z,6.03
2019-02-04T17:23:47.599Z,5.40
2019-02-04T17:26:15.940Z,8.58
2019-02-04T17:28:45.326Z,6.75
2019-02-04T17:31:13.960Z,8.28
2019-02-04T17:33:42.046Z,7.55
2019-02-04T17:36:10.301Z,7.15
2019-02-04T17:38:38.567Z,6.92
2019-02-04T17:41:06.959Z,10.03
2019-02-04T17:43:35.051Z,6.80
2019-02-04T17:46:03.265Z,7.22
2019-02-04T17:48:31.341Z,9.18
2019-02-04T17:50:59.964Z,11.65
2019-02-04T17:53:34.391Z,19.75
2019-02-04T17:55:58.091Z,9.50
2019-02-04T17:58:26.490Z,8.30
2019-02-04T18:00:55.297Z,8.40
2019-02-04T18:03:35.598Z,11.78
2019-02-04T18:06:04.208Z,15.08
2019-02-04T18:08:32.266Z,11.48
2019-02-04T18:11:00.412Z,8.25
2019-02-04T18:13:28.776Z,16.20
2019-02-04T18:15:57.340Z,19.65
2019-02-04T18:18:25.689Z,14.80
2019-02-04T18:20:54.017Z,10.05
2019-02-04T18:23:25.128Z,10.93
2019-02-04T18:25:53.618Z,7.62
2019-02-04T18:28:22.832Z,10.35
2019-02-04T18:30:51.194Z,7.33
2019-02-04T18:33:19.549Z,19.23
2019-02-04T18:35:47.722Z,8.45
2019-02-04T18:38:16.240Z,11.60
2019-02-04T18:40:46.115Z,6.90
2019-02-04T18:43:14.357Z,9.43
2019-02-04T18:45:43.830Z,11.48
2019-02-04T18:48:12.697Z,7.78
2019-02-04T18:50:42.626Z,9.53
2019-02-04T18:53:11.948Z,8.28
2019-02-04T18:56:00.974Z,8.23
2019-02-04T18:58:33.035Z,10.50
2019-02-04T19:01:02.231Z,6.05
2019-02-04T19:03:31.864Z,7.75
2019-02-04T19:06:00.946Z,11.40
2019-02-04T19:08:31.709Z,9.00
2019-02-04T19:11:00.988Z,7.42
2019-02-04T19:13:36.275Z,9.18
2019-02-04T19:16:01.441Z,10.20
2019-02-04T19:18:31.340Z,12.53
2019-02-04T19:21:00.750Z,10.23
2019-02-04T19:23:29.901Z,10.43
2019-02-04T19:25:59.534Z,10.93
2019-02-04T19:31:39.782Z,3.80
2019-02-04T19:34:09.018Z,11.63
2019-02-04T19:36:38.370Z,7.80
2019-02-04T19:39:08.850Z,5.65
2019-02-04T19:41:37.772Z,8.48
2019-02-04T19:44:07.277Z,5.20
2019-02-04T19:46:36.248Z,3.80
2019-02-04T19:49:06.067Z,6.30
2019-02-04T19:51:37.459Z,7.50
2019-02-04T19:54:07.735Z,5.40
2019-02-04T19:56:36.721Z,7.10
2019-02-04T19:59:05.448Z,8.45
2019-02-04T20:01:35.106Z,7.97
2019-02-04T20:04:04.255Z,7.95
2019-02-04T20:06:33.847Z,8.03
2019-02-04T20:09:05.283Z,6.70
2019-02-04T20:11:34.315Z,6.33
2019-02-04T20:14:03.675Z,3.45
2019-02-04T20:16:34.088Z,8.83
2019-02-04T20:19:04.444Z,6.90
2019-02-04T20:24:11.309Z,5.60
2019-02-04T20:26:41.067Z,5.35
2019-02-04T20:29:10.725Z,4.42
2019-02-04T20:31:41.220Z,6.00
2019-02-04T20:34:10.265Z,7.05
2019-02-04T20:36:39.027Z,7.22
2019-02-04T20:39:10.069Z,6.25
2019-02-04T20:41:39.485Z,6.22
2019-02-04T20:44:11.267Z,6.47
2019-02-04T20:46:40.513Z,8.18
2019-02-04T20:49:09.461Z,6.62
2019-02-04T20:51:38.711Z,6.83
2019-02-04T20:54:19.265Z,6.25
2019-02-04T20:56:38.344Z,9.60
2019-02-04T20:59:07.456Z,8.03
2019-02-04T21:01:36.878Z,6.67
2019-02-04T21:04:24.415Z,8.08
2019-02-04T21:06:56.203Z,8.73
2019-02-04T21:09:23.671Z,6.30
2019-02-04T21:11:52.515Z,9.08
2019-02-04T21:14:21.063Z,9.48
2019-02-04T21:16:49.388Z,4.72
2019-02-04T21:19:17.526Z,5.30
2019-02-04T21:21:45.892Z,8.85
2019-02-04T21:24:14.012Z,8.23
2019-02-04T21:26:42.918Z,5.08
2019-02-04T21:29:11.520Z,6.58
2019-02-04T21:31:39.894Z,5.22
2019-02-04T21:34:08.218Z,6.75
2019-02-04T21:36:36.402Z,5.80
2019-02-04T21:39:06.058Z,9.93
2019-02-04T21:41:34.845Z,7.03
2019-02-04T21:44:03.112Z,4.70
2019-02-04T21:46:31.256Z,7.17
2019-02-04T21:49:01.320Z,2.98
2019-02-04T21:51:29.494Z,8.98
2019-02-04T21:53:57.561Z,10.38
2019-02-04T21:56:25.667Z,5.12
2019-02-04T21:58:53.997Z,8.25
2019-02-04T22:01:22.330Z,5.33
2019-02-04T22:03:50.457Z,5.65
2019-02-04T22:06:18.595Z,7.17
2019-02-04T22:08:46.698Z,8.98
2019-02-04T22:11:14.845Z,7.58
2019-02-04T22:13:42.923Z,4.78
2019-02-04T22:16:11.256Z,4.53
2019-02-04T22:18:39.390Z,6.58
2019-02-04T22:21:07.621Z,4.60
2019-02-04T22:23:35.828Z,6.35
2019-02-04T22:26:03.908Z,5.22
2019-02-04T22:28:32.181Z,6.03
2019-02-04T22:31:00.541Z,12.68
2019-02-04T22:33:28.716Z,4.80
2019-02-04T22:35:56.821Z,4.50
2019-02-04T22:38:24.820Z,6.80
2019-02-04T22:40:52.902Z,4.05
2019-02-04T22:43:20.990Z,3.83
2019-02-04T22:45:49.038Z,4.03
2019-02-04T22:48:17.084Z,7.08
2019-02-04T22:50:45.100Z,7.62
2019-02-04T22:53:13.247Z,4.87
2019-02-04T22:55:41.269Z,5.58
2019-02-04T22:58:09.409Z,6.58
2019-02-04T23:01:02.595Z,6.15
2019-02-04T23:03:30.605Z,4.45
2019-02-04T23:05:58.923Z,4.30
2019-02-04T23:08:27.017Z,6.37
2019-02-04T23:10:55.031Z,4.03
2019-02-04T23:13:23.116Z,4.60
2019-02-04T23:15:54.105Z,4.83
2019-02-04T23:18:22.361Z,5.15
2019-02-04T23:20:50.379Z,3.80
2019-02-04T23:23:18.458Z,3.90
2019-02-04T23:25:46.429Z,3.85
2019-02-04T23:28:14.466Z,4.28
2019-02-04T23:30:44.232Z,4.67
2019-02-04T23:33:12.244Z,4.17
2019-02-04T23:35:40.242Z,3.33
2019-02-04T23:38:08.251Z,4.28
2019-02-04T23:40:36.247Z,2.85
2019-02-04T23:43:04.215Z,4.72
2019-02-04T23:45:32.228Z,3.98
2019-02-04T23:48:00.564Z,5.00
2019-02-04T23:50:28.547Z,4.83
2019-02-04T23:52:56.539Z,4.00
2019-02-04T23:55:24.534Z,4.35
2019-02-04T23:57:52.563Z,6.10
